Time;durP1;ratioP1;P1;durP2;ratioP2;P2;SDS_P1;SDS_P2;PMS_P1;PMS_P2;Temp;Humidity;BMP_temperature;BMP_pressure;BME280_temperature;BME280_humidity;BME280_pressure;Samples;Min_cycle;Max_cycle;Signal;HPM_P1;HPM_P2
2023/12/03 00:07:58;;;;;;;;;;;-2.90;99.90;;;;;;21143904;27;19916;-83
2023/12/03 00:17:59;;;;;;;;;;;-3.10;99.90;;;;;;21142623;27;19965;-83
2023/12/03 00:27:59;;;;;;;;;;;-3.20;99.90;;;;;;21152120;27;19916;-83
2023/12/03 00:38:00;;;;;;;;;;;-3.30;99.90;;;;;;21146538;27;19916;-83
2023/12/03 00:48:01;;;;;;;;;;;-3.60;99.90;;;;;;21121120;28;19916;-82
2023/12/03 00:58:01;;;;;;;;;;;-4.00;99.90;;;;;;21137051;27;20286;-82
2023/12/03 01:08:02;;;;;;;;;;;-4.30;99.90;;;;;;21120234;27;19922;-82
2023/12/03 01:18:03;;;;;;;;;;;-4.60;99.90;;;;;;21113887;28;19923;-83
2023/12/03 01:28:04;;;;;;;;;;;-4.60;99.90;;;;;;21129900;28;19924;-82
2023/12/03 01:38:04;;;;;;;;;;;-4.80;99.90;;;;;;21110807;28;20341;-82
2023/12/03 01:48:06;;;;;;;;;;;-5.00;99.90;;;;;;21204486;28;19916;-82
2023/12/03 01:58:07;;;;;;;;;;;-5.20;99.90;;;;;;21168309;28;19911;-83
2023/12/03 02:08:07;;;;;;;;;;;-5.10;99.90;;;;;;21148441;28;19916;-82
2023/12/03 02:18:08;;;;;;;;;;;-5.30;99.90;;;;;;21167169;28;19977;-81
2023/12/03 02:28:09;;;;;;;;;;;-5.70;99.90;;;;;;21164732;28;19916;-82
2023/12/03 02:38:09;;;;;;;;;;;-5.70;99.90;;;;;;21165589;27;19966;-83
2023/12/03 02:48:10;;;;;;;;;;;-5.70;99.90;;;;;;21167493;27;19920;-82
2023/12/03 02:58:11;;;;;;;;;;;-6.00;99.90;;;;;;21145500;28;20003;-84
2023/12/03 03:08:11;;;;;;;;;;;-6.00;99.90;;;;;;21130211;27;19938;-82
2023/12/03 03:18:12;;;;;;;;;;;-5.90;99.90;;;;;;21177649;27;19912;-82
2023/12/03 03:28:13;;;;;;;;;;;-5.90;99.90;;;;;;21160341;27;19959;-83
2023/12/03 03:38:13;;;;;;;;;;;-6.40;99.90;;;;;;21129602;27;20295;-84
2023/12/03 03:48:14;;;;;;;;;;;-6.40;99.90;;;;;;21202443;27;19920;-82
2023/12/03 03:58:14;;;;;;;;;;;-6.70;99.90;;;;;;21158357;27;20345;-81
2023/12/03 04:08:15;;;;;;;;;;;-6.80;99.90;;;;;;21191145;27;19974;-81
2023/12/03 04:18:16;;;;;;;;;;;-6.80;99.90;;;;;;21250641;27;19912;-80
2023/12/03 04:28:16;;;;;;;;;;;-6.90;99.90;;;;;;21221839;27;20386;-81
2023/12/03 04:38:17;;;;;;;;;;;-6.90;99.90;;;;;;21124002;28;19962;-83
2023/12/03 04:48:18;;;;;;;;;;;-7.10;99.90;;;;;;21138740;28;20400;-83
2023/12/03 04:58:18;;;;;;;;;;;-7.00;99.90;;;;;;21144205;28;19912;-83
2023/12/03 05:08:20;;;;;;;;;;;-7.10;99.90;;;;;;21140213;28;19986;-83
2023/12/03 05:18:20;;;;;;;;;;;-7.20;99.90;;;;;;21140258;27;19938;-83
2023/12/03 05:28:21;;;;;;;;;;;-7.00;99.90;;;;;;21162052;28;19916;-83
2023/12/03 05:38:21;;;;;;;;;;;-7.10;99.90;;;;;;21186081;27;19915;-84
2023/12/03 05:48:22;;;;;;;;;;;-7.10;99.90;;;;;;21131449;28;20390;-84
2023/12/03 05:58:23;;;;;;;;;;;-6.90;99.90;;;;;;21135260;28;19916;-85
2023/12/03 06:08:24;;;;;;;;;;;-7.00;99.90;;;;;;21147083;27;19926;-85
2023/12/03 06:18:24;;;;;;;;;;;-6.60;99.90;;;;;;21149419;28;19977;-84
2023/12/03 06:28:27;;;;;;;;;;;-6.60;99.90;;;;;;21147566;28;20532;-83
2023/12/03 06:38:27;;;;;;;;;;;-7.10;99.90;;;;;;21144480;28;19915;-83
2023/12/03 06:48:28;;;;;;;;;;;-7.50;99.90;;;;;;21144275;28;20379;-82
2023/12/03 06:58:29;;;;;;;;;;;-7.80;99.90;;;;;;21142141;28;19918;-83
2023/12/03 07:08:30;;;;;;;;;;;-7.60;99.90;;;;;;21167898;27;20048;-84
2023/12/03 07:18:31;;;;;;;;;;;-7.00;99.90;;;;;;21189214;27;20336;-84
2023/12/03 07:28:31;;;;;;;;;;;-6.50;99.90;;;;;;21151866;27;19919;-83
2023/12/03 07:38:32;;;;;;;;;;;-6.00;99.90;;;;;;21130483;27;19943;-86
2023/12/03 07:48:33;;;;;;;;;;;-5.70;99.90;;;;;;21145347;28;19922;-83
2023/12/03 07:58:35;;;;;;;;;;;-5.40;99.90;;;;;;21159272;27;19966;-85
2023/12/03 08:08:36;;;;;;;;;;;-5.20;99.90;;;;;;21163166;27;19920;-83
2023/12/03 08:18:37;;;;;;;;;;;-4.80;99.90;;;;;;21149633;27;19939;-83
2023/12/03 08:28:38;;;;;;;;;;;-4.60;99.90;;;;;;21141533;27;20386;-84
2023/12/03 08:38:38;;;;;;;;;;;-4.50;99.90;;;;;;21156263;27;19915;-84
2023/12/03 08:48:39;;;;;;;;;;;-4.00;99.90;;;;;;21163006;27;19923;-83
2023/12/03 08:58:40;;;;;;;;;;;-4.30;99.90;;;;;;21130744;28;19951;-85
2023/12/03 09:08:41;;;;;;;;;;;-4.40;99.90;;;;;;21158720;27;20121;-84
2023/12/03 09:42:26;;;;;;;39.00;16.48;;;-3.20;99.90;;;;;;21128351;27;20395;-76
2023/12/03 09:52:29;;;;;;;23.42;10.10;;;-3.50;99.90;;;;;;21042429;28;20052;-76
2023/12/03 10:02:32;;;;;;;27.85;11.52;;;-3.20;99.90;;;;;;21018145;28;20037;-76
2023/12/03 10:12:41;;;;;;;27.98;11.52;;;-3.00;99.90;;;;;;21028031;28;20115;-76
2023/12/03 10:22:42;;;;;;;29.43;11.73;;;-2.80;99.90;;;;;;21040514;28;20060;-76
2023/12/03 10:32:45;;;;;;;26.40;10.98;;;-1.90;99.90;;;;;;21020012;28;20059;-76
2023/12/03 10:42:46;;;;;;;29.55;12.32;;;-2.10;99.90;;;;;;20979706;28;20028;-76
2023/12/03 10:52:48;;;;;;;28.52;11.95;;;-1.90;99.90;;;;;;20991520;28;20032;-76
2023/12/03 11:03:13;;;;;;;23.00;10.13;;;-1.50;99.90;;;;;;20977524;28;20037;-76
2023/12/03 11:13:16;;;;;;;22.00;9.82;;;-1.00;99.90;;;;;;20963769;28;20039;-77
2023/12/03 11:23:36;;;;;;;24.63;10.63;;;0.40;99.90;;;;;;20974897;28;20036;-76
2023/12/03 11:33:54;;;;;;;20.75;10.27;;;1.40;99.90;;;;;;20999997;28;20042;-79
2023/12/03 11:44:19;;;;;;;28.33;12.07;;;0.90;99.90;;;;;;21011216;28;20034;-77
2023/12/03 11:54:28;;;;;;;22.25;10.10;;;1.50;99.90;;;;;;20998837;28;20032;-79
2023/12/03 12:04:29;;;;;;;24.67;11.32;;;2.60;99.90;;;;;;20995162;28;20041;-75
2023/12/03 12:14:29;;;;;;;21.00;10.40;;;2.90;99.90;;;;;;20966711;28;20485;-78
2023/12/03 12:24:30;;;;;;;24.00;11.30;;;2.10;99.90;;;;;;20978175;28;20020;-77
2023/12/03 12:34:33;;;;;;;24.45;10.98;;;1.80;99.90;;;;;;20987339;28;20055;-78
2023/12/03 12:44:42;;;;;;;26.65;12.02;;;2.80;99.90;;;;;;21000096;28;20040;-78
2023/12/03 12:54:47;;;;;;;29.13;10.73;;;2.10;99.90;;;;;;20979575;28;20033;-78
2023/12/03 13:04:48;;;;;;;22.58;11.13;;;2.40;99.90;;;;;;20975571;28;20036;-77
2023/12/03 13:14:49;;;;;;;21.08;10.32;;;1.30;99.90;;;;;;20981094;28;20027;-75
2023/12/03 13:24:50;;;;;;;24.20;10.93;;;1.90;99.90;;;;;;20983217;28;20024;-76
2023/12/03 13:34:51;;;;;;;25.52;11.65;;;1.40;99.90;;;;;;20979152;28;20328;-77
2023/12/03 13:44:51;;;;;;;48.93;19.57;;;0.70;99.90;;;;;;20974127;28;20397;-77
2023/12/03 13:54:55;;;;;;;25.63;12.27;;;1.50;99.90;;;;;;20986549;28;20791;-77
2023/12/03 14:04:55;;;;;;;26.50;12.15;;;1.40;99.90;;;;;;20976837;28;20035;-77
2023/12/03 14:14:56;;;;;;;28.60;12.07;;;2.00;99.90;;;;;;20984952;28;20033;-77
2023/12/03 14:24:57;;;;;;;30.02;11.57;;;0.80;99.90;;;;;;20988991;28;20320;-75
2023/12/03 14:35:00;;;;;;;27.85;12.07;;;1.20;99.90;;;;;;20965578;28;20043;-77
2023/12/03 14:45:01;;;;;;;34.25;13.43;;;0.10;99.90;;;;;;20964216;28;20025;-77
2023/12/03 14:55:03;;;;;;;27.58;11.77;;;-0.80;99.90;;;;;;20966688;28;20028;-77
2023/12/03 15:05:04;;;;;;;30.17;13.25;;;-0.80;99.90;;;;;;20967682;28;20032;-77
2023/12/03 15:15:05;;;;;;;41.60;16.13;;;-1.50;99.90;;;;;;20971486;28;20032;-76
2023/12/03 15:25:06;;;;;;;34.72;13.90;;;-2.00;99.90;;;;;;20969066;28;20115;-76
2023/12/03 15:35:07;;;;;;;44.33;15.30;;;-2.60;99.90;;;;;;20970861;28;20055;-78
2023/12/03 15:45:08;;;;;;;80.47;30.77;;;-3.10;99.90;;;;;;20978771;28;20112;-76
2023/12/03 15:55:09;;;;;;;45.40;16.00;;;-3.40;99.90;;;;;;20971019;28;20381;-76
2023/12/03 16:05:10;;;;;;;45.53;16.33;;;-3.70;99.90;;;;;;20981371;28;20040;-77
2023/12/03 16:15:11;;;;;;;49.50;15.98;;;-3.90;99.90;;;;;;20973752;28;20025;-77
2023/12/03 16:25:12;;;;;;;44.03;20.20;;;-4.20;99.90;;;;;;20975832;28;20198;-79
2023/12/03 16:35:13;;;;;;;43.92;18.20;;;-4.20;99.90;;;;;;20980837;28;20024;-77
2023/12/03 16:45:14;;;;;;;38.67;14.40;;;-4.20;99.90;;;;;;20978679;28;20067;-79
2023/12/03 16:55:15;;;;;;;55.28;17.17;;;-4.00;99.90;;;;;;20985137;28;20020;-78
2023/12/03 17:05:16;;;;;;;55.75;18.75;;;-4.00;99.90;;;;;;20975128;28;20507;-78
2023/12/03 17:15:17;;;;;;;46.38;16.83;;;-4.20;99.90;;;;;;20953688;28;20070;-78
2023/12/03 17:25:17;;;;;;;45.10;17.63;;;-4.10;99.90;;;;;;20963937;28;20044;-77
2023/12/03 17:35:18;;;;;;;51.70;18.00;;;-4.30;99.90;;;;;;20976107;28;20403;-77
2023/12/03 17:45:19;;;;;;;57.83;20.33;;;-4.30;99.90;;;;;;20964514;28;20059;-77
2023/12/03 17:55:20;;;;;;;49.63;17.15;;;-4.60;99.90;;;;;;20967213;28;20438;-77
2023/12/03 18:05:21;;;;;;;55.97;17.92;;;-4.60;99.90;;;;;;20973345;28;20109;-78
2023/12/03 18:15:21;;;;;;;49.72;17.67;;;-4.60;99.90;;;;;;20978607;28;20044;-78
2023/12/03 18:25:22;;;;;;;54.55;19.45;;;-4.60;99.90;;;;;;20979144;28;20498;-77
2023/12/03 18:35:23;;;;;;;49.20;17.48;;;-4.70;99.90;;;;;;20987298;28;20032;-78
2023/12/03 18:45:25;;;;;;;52.50;18.58;;;-4.80;99.90;;;;;;20993051;28;20029;-78
2023/12/03 18:55:26;;;;;;;55.22;18.05;;;-4.80;99.90;;;;;;20986867;28;20036;-78
2023/12/03 19:05:27;;;;;;;52.83;16.60;;;-4.90;99.90;;;;;;20975818;28;20037;-77
2023/12/03 19:15:28;;;;;;;53.40;17.85;;;-4.90;99.90;;;;;;20972963;28;20033;-77
2023/12/03 19:25:30;;;;;;;46.30;17.98;;;-4.90;99.90;;;;;;20973453;28;20119;-78
2023/12/03 19:35:30;;;;;;;66.65;21.02;;;-5.00;99.90;;;;;;20972314;28;20040;-75
2023/12/03 19:45:31;;;;;;;49.10;17.90;;;-5.20;99.90;;;;;;20978753;28;20385;-79
2023/12/03 19:55:32;;;;;;;48.03;18.00;;;-5.40;99.90;;;;;;20977114;28;20128;-77
2023/12/03 20:05:34;;;;;;;49.10;17.73;;;-5.40;99.90;;;;;;20979634;28;20029;-78
2023/12/03 20:15:34;;;;;;;45.33;16.88;;;-5.40;99.90;;;;;;20972899;28;20071;-77
2023/12/03 20:25:36;;;;;;;57.58;19.98;;;-5.60;99.90;;;;;;20961993;28;20031;-76
2023/12/03 20:35:37;;;;;;;54.25;18.52;;;-5.80;99.90;;;;;;20963311;28;20492;-76
2023/12/03 20:45:38;;;;;;;42.28;15.88;;;-5.90;99.90;;;;;;20955663;28;20040;-77
2023/12/03 20:55:39;;;;;;;37.53;16.30;;;-5.90;99.90;;;;;;20980582;28;20024;-76
2023/12/03 21:05:40;;;;;;;39.83;14.57;;;-5.90;99.90;;;;;;20956747;28;20032;-77
2023/12/03 21:15:41;;;;;;;45.63;15.63;;;-5.90;99.90;;;;;;21021736;28;20025;-76
2023/12/03 21:25:41;;;;;;;50.40;16.73;;;-5.90;99.90;;;;;;20997716;28;20485;-77
2023/12/03 21:35:45;;;;;;;62.72;17.48;;;-5.80;99.90;;;;;;21028154;28;20036;-77
2023/12/03 21:45:46;;;;;;;53.67;19.30;;;-5.70;99.90;;;;;;21010639;28;20021;-77
2023/12/03 21:55:47;;;;;;;50.75;18.17;;;-5.60;99.90;;;;;;20986473;28;20039;-78
2023/12/03 22:05:47;;;;;;;69.90;22.60;;;-5.50;99.90;;;;;;21011467;28;20544;-76
2023/12/03 22:15:49;;;;;;;73.28;20.52;;;-5.50;99.90;;;;;;20989121;28;20025;-77
2023/12/03 22:25:50;;;;;;;67.25;19.98;;;-5.50;99.90;;;;;;20982316;28;20100;-78
2023/12/03 22:35:50;;;;;;;61.78;20.33;;;-5.40;99.90;;;;;;21022156;28;20067;-77
2023/12/03 22:45:51;;;;;;;59.05;18.75;;;-5.40;99.90;;;;;;21021685;28;20025;-77
2023/12/03 22:55:52;;;;;;;60.60;19.90;;;-5.20;99.90;;;;;;21013145;28;20083;-77
2023/12/03 23:05:52;;;;;;;67.18;20.15;;;-5.30;99.90;;;;;;21021904;28;20029;-76
2023/12/03 23:15:53;;;;;;;68.93;17.90;;;-5.30;99.90;;;;;;20964823;28;20024;-76
2023/12/03 23:25:54;;;;;;;60.70;19.52;;;-5.20;99.90;;;;;;20964067;28;20040;-76
2023/12/03 23:35:55;;;;;;;63.20;18.20;;;-5.30;99.90;;;;;;20978438;28;20047;-77
2023/12/03 23:45:55;;;;;;;57.65;17.08;;;-5.10;99.90;;;;;;21015763;28;20036;-77
2023/12/03 23:55:56;;;;;;;56.97;19.35;;;-5.00;99.90;;;;;;21014837;28;20039;-77
